sensor_id;sensor_type;location;lat;lon;timestamp;P1;durP1;ratioP1;P2;durP2;ratioP2
24153;SDS011;12312;53.362;-1.518;2024-02-23T00:01:02;3.75;;;1.10;;
24153;SDS011;12312;53.362;-1.518;2024-02-23T00:03:46;3.20;;;1.20;;
24153;SDS011;12312;53.362;-1.518;2024-02-23T00:06:30;2.22;;;1.50;;
24153;SDS011;12312;53.362;-1.518;2024-02-23T00:09:14;3.92;;;1.38;;
24153;SDS011;12312;53.362;-1.518;2024-02-23T00:11:58;4.13;;;1.20;;
24153;SDS011;12312;53.362;-1.518;2024-02-23T00:14:42;1.08;;;1.00;;
24153;SDS011;12312;53.362;-1.518;2024-02-23T00:17:26;5.60;;;1.60;;
24153;SDS011;12312;53.362;-1.518;2024-02-23T00:20:10;2.15;;;0.93;;
24153;SDS011;12312;53.362;-1.518;2024-02-23T00:22:55;1.30;;;1.10;;
24153;SDS011;12312;53.362;-1.518;2024-02-23T00:25:39;1.30;;;1.20;;
24153;SDS011;12312;53.362;-1.518;2024-02-23T00:28:23;7.68;;;1.92;;
24153;SDS011;12312;53.362;-1.518;2024-02-23T00:31:07;2.67;;;1.48;;
24153;SDS011;12312;53.362;-1.518;2024-02-23T00:33:51;1.85;;;1.30;;
24153;SDS011;12312;53.362;-1.518;2024-02-23T00:36:36;1.58;;;1.00;;
24153;SDS011;12312;53.362;-1.518;2024-02-23T00:39:22;2.85;;;0.90;;
24153;SDS011;12312;53.362;-1.518;2024-02-23T00:42:06;2.55;;;1.15;;
24153;SDS011;12312;53.362;-1.518;2024-02-23T00:44:51;1.08;;;0.90;;
24153;SDS011;12312;53.362;-1.518;2024-02-23T00:47:35;3.25;;;0.95;;
24153;SDS011;12312;53.362;-1.518;2024-02-23T00:50:19;4.88;;;1.50;;
24153;SDS011;12312;53.362;-1.518;2024-02-23T00:53:03;2.90;;;1.00;;
24153;SDS011;12312;53.362;-1.518;2024-02-23T00:55:47;0.90;;;0.90;;
24153;SDS011;12312;53.362;-1.518;2024-02-23T00:58:31;2.30;;;1.15;;
24153;SDS011;12312;53.362;-1.518;2024-02-23T01:01:15;3.60;;;0.90;;
24153;SDS011;12312;53.362;-1.518;2024-02-23T01:04:00;1.30;;;0.80;;
24153;SDS011;12312;53.362;-1.518;2024-02-23T01:06:44;5.35;;;1.25;;
24153;SDS011;12312;53.362;-1.518;2024-02-23T01:09:28;12.23;;;1.05;;
24153;SDS011;12312;53.362;-1.518;2024-02-23T01:12:12;0.90;;;0.90;;
24153;SDS011;12312;53.362;-1.518;2024-02-23T01:14:56;8.65;;;1.63;;
24153;SDS011;12312;53.362;-1.518;2024-02-23T01:17:40;2.35;;;1.50;;
24153;SDS011;12312;53.362;-1.518;2024-02-23T01:20:24;2.22;;;1.02;;
24153;SDS011;12312;53.362;-1.518;2024-02-23T01:23:08;12.70;;;1.42;;
24153;SDS011;12312;53.362;-1.518;2024-02-23T01:25:52;2.50;;;0.70;;
24153;SDS011;12312;53.362;-1.518;2024-02-23T01:28:36;2.50;;;1.05;;
24153;SDS011;12312;53.362;-1.518;2024-02-23T01:31:19;1.65;;;1.00;;
24153;SDS011;12312;53.362;-1.518;2024-02-23T01:34:04;5.70;;;1.10;;
24153;SDS011;12312;53.362;-1.518;2024-02-23T01:36:48;9.85;;;1.33;;
24153;SDS011;12312;53.362;-1.518;2024-02-23T01:39:32;2.33;;;1.05;;
24153;SDS011;12312;53.362;-1.518;2024-02-23T01:42:16;0.70;;;0.70;;
24153;SDS011;12312;53.362;-1.518;2024-02-23T01:45:01;5.00;;;1.30;;
24153;SDS011;12312;53.362;-1.518;2024-02-23T01:47:47;7.43;;;1.35;;
24153;SDS011;12312;53.362;-1.518;2024-02-23T01:50:31;4.05;;;0.98;;
24153;SDS011;12312;53.362;-1.518;2024-02-23T01:53:16;10.57;;;1.52;;
24153;SDS011;12312;53.362;-1.518;2024-02-23T01:56:03;3.72;;;1.90;;
24153;SDS011;12312;53.362;-1.518;2024-02-23T01:58:47;4.17;;;2.33;;
24153;SDS011;12312;53.362;-1.518;2024-02-23T02:01:32;4.40;;;1.00;;
24153;SDS011;12312;53.362;-1.518;2024-02-23T02:04:16;1.60;;;1.30;;
24153;SDS011;12312;53.362;-1.518;2024-02-23T02:07:00;1.35;;;1.25;;
24153;SDS011;12312;53.362;-1.518;2024-02-23T02:09:45;6.40;;;1.83;;
24153;SDS011;12312;53.362;-1.518;2024-02-23T02:12:29;3.25;;;0.98;;
24153;SDS011;12312;53.362;-1.518;2024-02-23T02:15:13;12.35;;;1.90;;
24153;SDS011;12312;53.362;-1.518;2024-02-23T02:17:57;0.80;;;0.80;;
24153;SDS011;12312;53.362;-1.518;2024-02-23T02:20:44;1.75;;;1.02;;
24153;SDS011;12312;53.362;-1.518;2024-02-23T02:23:36;3.22;;;1.90;;
24153;SDS011;12312;53.362;-1.518;2024-02-23T02:26:21;3.97;;;1.38;;
24153;SDS011;12312;53.362;-1.518;2024-02-23T02:29:05;2.38;;;1.20;;
24153;SDS011;12312;53.362;-1.518;2024-02-23T02:31:48;4.15;;;0.85;;
24153;SDS011;12312;53.362;-1.518;2024-02-23T02:34:32;2.88;;;1.38;;
24153;SDS011;12312;53.362;-1.518;2024-02-23T02:37:16;4.82;;;1.00;;
24153;SDS011;12312;53.362;-1.518;2024-02-23T02:40:00;2.15;;;1.20;;
24153;SDS011;12312;53.362;-1.518;2024-02-23T02:42:44;4.50;;;1.20;;
24153;SDS011;12312;53.362;-1.518;2024-02-23T02:45:28;4.50;;;1.27;;
24153;SDS011;12312;53.362;-1.518;2024-02-23T02:48:12;4.90;;;1.13;;
24153;SDS011;12312;53.362;-1.518;2024-02-23T02:50:57;6.70;;;1.70;;
24153;SDS011;12312;53.362;-1.518;2024-02-23T02:53:41;0.93;;;0.93;;
24153;SDS011;12312;53.362;-1.518;2024-02-23T02:56:24;1.30;;;1.20;;
24153;SDS011;12312;53.362;-1.518;2024-02-23T02:59:09;3.25;;;1.10;;
24153;SDS011;12312;53.362;-1.518;2024-02-23T03:01:53;6.53;;;0.95;;
24153;SDS011;12312;53.362;-1.518;2024-02-23T03:04:37;3.28;;;1.30;;
24153;SDS011;12312;53.362;-1.518;2024-02-23T03:07:21;1.13;;;1.10;;
24153;SDS011;12312;53.362;-1.518;2024-02-23T03:10:05;1.20;;;1.10;;
24153;SDS011;12312;53.362;-1.518;2024-02-23T03:12:49;7.25;;;1.48;;
24153;SDS011;12312;53.362;-1.518;2024-02-23T03:15:33;0.88;;;0.82;;
24153;SDS011;12312;53.362;-1.518;2024-02-23T03:18:17;2.03;;;1.00;;
24153;SDS011;12312;53.362;-1.518;2024-02-23T03:21:01;7.18;;;1.42;;
24153;SDS011;12312;53.362;-1.518;2024-02-23T03:23:45;3.63;;;1.25;;
24153;SDS011;12312;53.362;-1.518;2024-02-23T03:26:29;1.95;;;1.13;;
24153;SDS011;12312;53.362;-1.518;2024-02-23T03:29:13;6.45;;;1.33;;
24153;SDS011;12312;53.362;-1.518;2024-02-23T03:31:57;3.78;;;1.02;;
24153;SDS011;12312;53.362;-1.518;2024-02-23T03:34:41;4.20;;;1.52;;
24153;SDS011;12312;53.362;-1.518;2024-02-23T03:37:27;9.05;;;2.00;;
24153;SDS011;12312;53.362;-1.518;2024-02-23T03:40:11;3.92;;;0.90;;
24153;SDS011;12312;53.362;-1.518;2024-02-23T03:42:56;5.27;;;1.80;;
24153;SDS011;12312;53.362;-1.518;2024-02-23T03:45:40;4.03;;;1.13;;
24153;SDS011;12312;53.362;-1.518;2024-02-23T03:48:25;4.10;;;1.15;;
24153;SDS011;12312;53.362;-1.518;2024-02-23T03:51:09;3.17;;;1.00;;
24153;SDS011;12312;53.362;-1.518;2024-02-23T03:53:53;1.55;;;0.90;;
24153;SDS011;12312;53.362;-1.518;2024-02-23T03:56:37;4.65;;;1.20;;
24153;SDS011;12312;53.362;-1.518;2024-02-23T03:59:25;5.40;;;1.63;;
24153;SDS011;12312;53.362;-1.518;2024-02-23T04:02:09;1.25;;;1.02;;
24153;SDS011;12312;53.362;-1.518;2024-02-23T04:04:53;4.32;;;1.20;;
24153;SDS011;12312;53.362;-1.518;2024-02-23T04:07:37;2.08;;;1.25;;
24153;SDS011;12312;53.362;-1.518;2024-02-23T04:10:21;2.35;;;1.13;;
24153;SDS011;12312;53.362;-1.518;2024-02-23T04:13:05;2.65;;;0.90;;
24153;SDS011;12312;53.362;-1.518;2024-02-23T04:15:49;10.02;;;1.85;;
24153;SDS011;12312;53.362;-1.518;2024-02-23T04:18:33;1.23;;;1.10;;
24153;SDS011;12312;53.362;-1.518;2024-02-23T04:21:17;2.70;;;1.48;;
24153;SDS011;12312;53.362;-1.518;2024-02-23T04:24:01;1.75;;;1.20;;
24153;SDS011;12312;53.362;-1.518;2024-02-23T04:26:45;4.30;;;1.23;;
24153;SDS011;12312;53.362;-1.518;2024-02-23T04:29:29;3.25;;;1.40;;
24153;SDS011;12312;53.362;-1.518;2024-02-23T04:32:13;1.58;;;1.20;;
24153;SDS011;12312;53.362;-1.518;2024-02-23T04:34:57;1.55;;;1.13;;
24153;SDS011;12312;53.362;-1.518;2024-02-23T04:37:44;5.97;;;1.45;;
24153;SDS011;12312;53.362;-1.518;2024-02-23T04:40:28;6.32;;;1.70;;
24153;SDS011;12312;53.362;-1.518;2024-02-23T04:43:12;1.85;;;1.10;;
24153;SDS011;12312;53.362;-1.518;2024-02-23T04:45:57;2.67;;;1.20;;
24153;SDS011;12312;53.362;-1.518;2024-02-23T04:48:41;2.72;;;1.60;;
24153;SDS011;12312;53.362;-1.518;2024-02-23T04:51:25;1.00;;;1.00;;
24153;SDS011;12312;53.362;-1.518;2024-02-23T04:54:09;2.08;;;1.58;;
24153;SDS011;12312;53.362;-1.518;2024-02-23T04:56:54;1.33;;;1.23;;
24153;SDS011;12312;53.362;-1.518;2024-02-23T04:59:37;1.65;;;1.55;;
24153;SDS011;12312;53.362;-1.518;2024-02-23T05:02:21;1.67;;;1.58;;
24153;SDS011;12312;53.362;-1.518;2024-02-23T05:05:06;4.57;;;1.52;;
24153;SDS011;12312;53.362;-1.518;2024-02-23T05:07:50;6.13;;;1.30;;
24153;SDS011;12312;53.362;-1.518;2024-02-23T05:10:34;4.35;;;1.25;;
24153;SDS011;12312;53.362;-1.518;2024-02-23T05:13:19;5.03;;;1.73;;
24153;SDS011;12312;53.362;-1.518;2024-02-23T05:16:02;7.65;;;1.63;;
24153;SDS011;12312;53.362;-1.518;2024-02-23T05:18:47;4.90;;;2.10;;
24153;SDS011;12312;53.362;-1.518;2024-02-23T05:21:31;4.35;;;1.88;;
24153;SDS011;12312;53.362;-1.518;2024-02-23T05:24:15;4.53;;;1.42;;
24153;SDS011;12312;53.362;-1.518;2024-02-23T05:26:59;2.35;;;1.52;;
24153;SDS011;12312;53.362;-1.518;2024-02-23T05:29:46;1.30;;;1.20;;
24153;SDS011;12312;53.362;-1.518;2024-02-23T05:32:30;5.68;;;1.40;;
24153;SDS011;12312;53.362;-1.518;2024-02-23T05:35:14;3.20;;;1.45;;
24153;SDS011;12312;53.362;-1.518;2024-02-23T05:37:58;3.85;;;2.00;;
24153;SDS011;12312;53.362;-1.518;2024-02-23T05:40:42;2.72;;;1.55;;
24153;SDS011;12312;53.362;-1.518;2024-02-23T05:43:27;2.28;;;1.33;;
24153;SDS011;12312;53.362;-1.518;2024-02-23T05:46:11;5.28;;;1.33;;
24153;SDS011;12312;53.362;-1.518;2024-02-23T05:48:55;2.40;;;1.27;;
24153;SDS011;12312;53.362;-1.518;2024-02-23T05:51:39;5.55;;;1.63;;
24153;SDS011;12312;53.362;-1.518;2024-02-23T05:54:23;2.88;;;1.13;;
24153;SDS011;12312;53.362;-1.518;2024-02-23T05:57:07;3.03;;;1.52;;
24153;SDS011;12312;53.362;-1.518;2024-02-23T05:59:52;6.15;;;2.63;;
24153;SDS011;12312;53.362;-1.518;2024-02-23T06:02:37;1.42;;;1.30;;
24153;SDS011;12312;53.362;-1.518;2024-02-23T06:05:21;2.90;;;1.63;;
24153;SDS011;12312;53.362;-1.518;2024-02-23T06:08:05;5.45;;;1.08;;
24153;SDS011;12312;53.362;-1.518;2024-02-23T06:10:49;3.85;;;1.75;;
24153;SDS011;12312;53.362;-1.518;2024-02-23T06:13:33;1.20;;;1.10;;
24153;SDS011;12312;53.362;-1.518;2024-02-23T06:16:17;3.03;;;1.15;;
24153;SDS011;12312;53.362;-1.518;2024-02-23T06:19:01;2.65;;;1.52;;
24153;SDS011;12312;53.362;-1.518;2024-02-23T06:21:50;4.15;;;1.58;;
24153;SDS011;12312;53.362;-1.518;2024-02-23T06:24:34;1.00;;;0.90;;
24153;SDS011;12312;53.362;-1.518;2024-02-23T06:27:18;1.85;;;1.50;;
24153;SDS011;12312;53.362;-1.518;2024-02-23T06:30:02;2.33;;;1.13;;
24153;SDS011;12312;53.362;-1.518;2024-02-23T06:32:46;4.88;;;1.75;;
24153;SDS011;12312;53.362;-1.518;2024-02-23T06:35:30;1.20;;;1.10;;
24153;SDS011;12312;53.362;-1.518;2024-02-23T06:38:15;4.38;;;1.20;;
24153;SDS011;12312;53.362;-1.518;2024-02-23T06:41:00;1.58;;;1.48;;
24153;SDS011;12312;53.362;-1.518;2024-02-23T06:43:44;2.15;;;1.25;;
24153;SDS011;12312;53.362;-1.518;2024-02-23T06:46:28;1.38;;;1.23;;
24153;SDS011;12312;53.362;-1.518;2024-02-23T06:49:12;6.43;;;1.48;;
24153;SDS011;12312;53.362;-1.518;2024-02-23T06:51:56;1.50;;;1.40;;
24153;SDS011;12312;53.362;-1.518;2024-02-23T06:54:40;3.40;;;1.30;;
24153;SDS011;12312;53.362;-1.518;2024-02-23T06:57:23;2.42;;;1.83;;
24153;SDS011;12312;53.362;-1.518;2024-02-23T07:00:09;2.72;;;1.67;;
24153;SDS011;12312;53.362;-1.518;2024-02-23T07:02:53;3.53;;;1.88;;
24153;SDS011;12312;53.362;-1.518;2024-02-23T07:05:37;11.40;;;2.17;;
24153;SDS011;12312;53.362;-1.518;2024-02-23T07:08:21;7.18;;;2.20;;
24153;SDS011;12312;53.362;-1.518;2024-02-23T07:11:05;2.28;;;1.70;;
24153;SDS011;12312;53.362;-1.518;2024-02-23T07:13:49;5.82;;;2.50;;
24153;SDS011;12312;53.362;-1.518;2024-02-23T07:16:37;3.28;;;2.40;;
24153;SDS011;12312;53.362;-1.518;2024-02-23T07:19:22;10.52;;;2.10;;
24153;SDS011;12312;53.362;-1.518;2024-02-23T07:22:06;5.60;;;2.33;;
24153;SDS011;12312;53.362;-1.518;2024-02-23T07:24:50;3.70;;;2.70;;
24153;SDS011;12312;53.362;-1.518;2024-02-23T07:27:34;6.60;;;3.10;;
24153;SDS011;12312;53.362;-1.518;2024-02-23T07:30:18;5.80;;;2.80;;
24153;SDS011;12312;53.362;-1.518;2024-02-23T07:33:03;4.80;;;2.50;;
24153;SDS011;12312;53.362;-1.518;2024-02-23T07:35:47;4.75;;;2.83;;
24153;SDS011;12312;53.362;-1.518;2024-02-23T07:38:31;4.13;;;2.60;;
24153;SDS011;12312;53.362;-1.518;2024-02-23T07:41:15;5.05;;;2.65;;
24153;SDS011;12312;53.362;-1.518;2024-02-23T07:44:01;4.40;;;2.30;;
24153;SDS011;12312;53.362;-1.518;2024-02-23T07:46:45;4.75;;;2.20;;
24153;SDS011;12312;53.362;-1.518;2024-02-23T07:49:29;7.50;;;2.53;;
24153;SDS011;12312;53.362;-1.518;2024-02-23T07:52:13;6.40;;;2.92;;
24153;SDS011;12312;53.362;-1.518;2024-02-23T07:54:57;3.88;;;2.60;;
24153;SDS011;12312;53.362;-1.518;2024-02-23T07:57:42;6.30;;;3.50;;
24153;SDS011;12312;53.362;-1.518;2024-02-23T08:00:26;3.97;;;2.45;;
24153;SDS011;12312;53.362;-1.518;2024-02-23T08:03:10;4.40;;;2.35;;
24153;SDS011;12312;53.362;-1.518;2024-02-23T08:05:54;9.77;;;2.13;;
24153;SDS011;12312;53.362;-1.518;2024-02-23T08:08:38;2.25;;;2.03;;
24153;SDS011;12312;53.362;-1.518;2024-02-23T08:11:22;3.85;;;2.22;;
24153;SDS011;12312;53.362;-1.518;2024-02-23T08:14:06;3.28;;;1.95;;
24153;SDS011;12312;53.362;-1.518;2024-02-23T08:16:50;4.30;;;2.78;;
24153;SDS011;12312;53.362;-1.518;2024-02-23T08:19:35;6.05;;;2.50;;
24153;SDS011;12312;53.362;-1.518;2024-02-23T08:22:19;4.20;;;2.42;;
24153;SDS011;12312;53.362;-1.518;2024-02-23T08:25:03;4.72;;;2.70;;
24153;SDS011;12312;53.362;-1.518;2024-02-23T08:27:47;6.03;;;2.70;;
24153;SDS011;12312;53.362;-1.518;2024-02-23T08:30:32;4.68;;;2.25;;
24153;SDS011;12312;53.362;-1.518;2024-02-23T08:33:17;3.20;;;2.30;;
24153;SDS011;12312;53.362;-1.518;2024-02-23T08:36:01;4.22;;;1.77;;
24153;SDS011;12312;53.362;-1.518;2024-02-23T08:38:49;4.63;;;2.33;;
24153;SDS011;12312;53.362;-1.518;2024-02-23T08:41:33;4.53;;;2.60;;
24153;SDS011;12312;53.362;-1.518;2024-02-23T08:44:17;2.97;;;2.35;;
24153;SDS011;12312;53.362;-1.518;2024-02-23T08:47:01;11.07;;;3.13;;
24153;SDS011;12312;53.362;-1.518;2024-02-23T08:49:45;7.20;;;2.30;;
24153;SDS011;12312;53.362;-1.518;2024-02-23T08:52:30;5.18;;;2.20;;
24153;SDS011;12312;53.362;-1.518;2024-02-23T08:55:14;2.63;;;1.70;;
24153;SDS011;12312;53.362;-1.518;2024-02-23T08:57:57;5.22;;;2.08;;
24153;SDS011;12312;53.362;-1.518;2024-02-23T09:00:41;6.43;;;1.85;;
24153;SDS011;12312;53.362;-1.518;2024-02-23T09:03:26;3.88;;;1.10;;
24153;SDS011;12312;53.362;-1.518;2024-02-23T09:06:10;3.20;;;1.17;;
24153;SDS011;12312;53.362;-1.518;2024-02-23T09:08:54;3.63;;;1.02;;
24153;SDS011;12312;53.362;-1.518;2024-02-23T09:11:38;7.15;;;1.20;;
24153;SDS011;12312;53.362;-1.518;2024-02-23T09:14:22;1.65;;;1.10;;
24153;SDS011;12312;53.362;-1.518;2024-02-23T09:19:56;4.10;;;1.58;;
24153;SDS011;12312;53.362;-1.518;2024-02-23T09:22:40;1.70;;;0.82;;
24153;SDS011;12312;53.362;-1.518;2024-02-23T09:25:24;4.80;;;1.52;;
24153;SDS011;12312;53.362;-1.518;2024-02-23T09:28:08;1.83;;;1.20;;
24153;SDS011;12312;53.362;-1.518;2024-02-23T09:30:54;3.85;;;1.30;;
24153;SDS011;12312;53.362;-1.518;2024-02-23T09:33:38;2.70;;;1.73;;
24153;SDS011;12312;53.362;-1.518;2024-02-23T09:36:22;8.65;;;1.50;;
24153;SDS011;12312;53.362;-1.518;2024-02-23T09:39:06;5.95;;;1.30;;
24153;SDS011;12312;53.362;-1.518;2024-02-23T09:41:50;3.65;;;1.30;;
24153;SDS011;12312;53.362;-1.518;2024-02-23T09:44:34;3.33;;;1.45;;
24153;SDS011;12312;53.362;-1.518;2024-02-23T09:47:19;6.25;;;2.15;;
24153;SDS011;12312;53.362;-1.518;2024-02-23T09:50:04;5.78;;;2.22;;
24153;SDS011;12312;53.362;-1.518;2024-02-23T09:52:48;6.85;;;2.05;;
24153;SDS011;12312;53.362;-1.518;2024-02-23T09:58:18;3.17;;;1.63;;
24153;SDS011;12312;53.362;-1.518;2024-02-23T10:01:04;7.47;;;2.15;;
24153;SDS011;12312;53.362;-1.518;2024-02-23T10:03:48;2.75;;;1.40;;
24153;SDS011;12312;53.362;-1.518;2024-02-23T10:06:32;2.45;;;1.67;;
24153;SDS011;12312;53.362;-1.518;2024-02-23T10:09:16;3.67;;;2.10;;
24153;SDS011;12312;53.362;-1.518;2024-02-23T10:12:01;1.48;;;1.30;;
24153;SDS011;12312;53.362;-1.518;2024-02-23T10:14:46;2.13;;;1.80;;
24153;SDS011;12312;53.362;-1.518;2024-02-23T10:17:31;5.43;;;1.55;;
24153;SDS011;12312;53.362;-1.518;2024-02-23T10:20:15;7.93;;;2.20;;
24153;SDS011;12312;53.362;-1.518;2024-02-23T10:23:01;5.20;;;1.77;;
24153;SDS011;12312;53.362;-1.518;2024-02-23T10:25:44;1.33;;;1.10;;
24153;SDS011;12312;53.362;-1.518;2024-02-23T10:28:28;3.47;;;1.17;;
24153;SDS011;12312;53.362;-1.518;2024-02-23T10:31:12;3.63;;;1.48;;
24153;SDS011;12312;53.362;-1.518;2024-02-23T10:33:57;3.53;;;1.25;;
24153;SDS011;12312;53.362;-1.518;2024-02-23T10:36:42;4.85;;;0.95;;
24153;SDS011;12312;53.362;-1.518;2024-02-23T10:39:26;2.45;;;1.10;;
24153;SDS011;12312;53.362;-1.518;2024-02-23T10:42:13;2.80;;;1.30;;
24153;SDS011;12312;53.362;-1.518;2024-02-23T10:45:01;2.97;;;1.80;;
24153;SDS011;12312;53.362;-1.518;2024-02-23T10:47:45;3.25;;;1.23;;
24153;SDS011;12312;53.362;-1.518;2024-02-23T10:50:31;3.63;;;1.10;;
24153;SDS011;12312;53.362;-1.518;2024-02-23T10:53:16;3.55;;;1.60;;
24153;SDS011;12312;53.362;-1.518;2024-02-23T10:56:03;2.50;;;1.70;;
24153;SDS011;12312;53.362;-1.518;2024-02-23T10:58:49;2.17;;;1.50;;
24153;SDS011;12312;53.362;-1.518;2024-02-23T11:01:32;3.47;;;1.55;;
24153;SDS011;12312;53.362;-1.518;2024-02-23T11:04:21;4.65;;;1.55;;
24153;SDS011;12312;53.362;-1.518;2024-02-23T11:07:12;5.85;;;1.75;;
24153;SDS011;12312;53.362;-1.518;2024-02-23T11:10:00;3.95;;;1.48;;
24153;SDS011;12312;53.362;-1.518;2024-02-23T11:12:44;4.18;;;1.58;;
24153;SDS011;12312;53.362;-1.518;2024-02-23T11:15:29;1.98;;;1.15;;
24153;SDS011;12312;53.362;-1.518;2024-02-23T11:18:22;3.15;;;1.73;;
24153;SDS011;12312;53.362;-1.518;2024-02-23T11:21:12;2.53;;;1.25;;
24153;SDS011;12312;53.362;-1.518;2024-02-23T11:23:56;2.20;;;1.23;;
24153;SDS011;12312;53.362;-1.518;2024-02-23T11:26:47;4.57;;;1.52;;
24153;SDS011;12312;53.362;-1.518;2024-02-23T11:29:32;2.65;;;1.50;;
24153;SDS011;12312;53.362;-1.518;2024-02-23T11:32:16;1.83;;;1.42;;
24153;SDS011;12312;53.362;-1.518;2024-02-23T11:35:01;5.20;;;1.00;;
24153;SDS011;12312;53.362;-1.518;2024-02-23T11:37:51;4.45;;;2.13;;
24153;SDS011;12312;53.362;-1.518;2024-02-23T11:40:40;5.10;;;1.83;;
24153;SDS011;12312;53.362;-1.518;2024-02-23T11:43:25;4.00;;;2.13;;
24153;SDS011;12312;53.362;-1.518;2024-02-23T11:46:09;8.00;;;1.73;;
24153;SDS011;12312;53.362;-1.518;2024-02-23T11:48:53;7.95;;;4.38;;
24153;SDS011;12312;53.362;-1.518;2024-02-23T11:51:38;20.45;;;9.88;;
24153;SDS011;12312;53.362;-1.518;2024-02-23T11:54:22;27.05;;;13.02;;
24153;SDS011;12312;53.362;-1.518;2024-02-23T11:57:06;23.63;;;10.38;;
24153;SDS011;12312;53.362;-1.518;2024-02-23T11:59:51;19.45;;;8.18;;
24153;SDS011;12312;53.362;-1.518;2024-02-23T12:02:35;17.85;;;7.00;;
24153;SDS011;12312;53.362;-1.518;2024-02-23T12:05:19;12.57;;;5.82;;
24153;SDS011;12312;53.362;-1.518;2024-02-23T12:08:03;6.32;;;3.35;;
24153;SDS011;12312;53.362;-1.518;2024-02-23T12:10:47;4.63;;;1.90;;
24153;SDS011;12312;53.362;-1.518;2024-02-23T12:13:31;11.75;;;1.33;;
24153;SDS011;12312;53.362;-1.518;2024-02-23T12:16:16;1.52;;;0.82;;
24153;SDS011;12312;53.362;-1.518;2024-02-23T12:19:00;1.88;;;0.80;;
24153;SDS011;12312;53.362;-1.518;2024-02-23T12:21:47;3.70;;;0.70;;
24153;SDS011;12312;53.362;-1.518;2024-02-23T12:24:31;0.90;;;0.55;;
24153;SDS011;12312;53.362;-1.518;2024-02-23T12:27:18;2.78;;;0.70;;
24153;SDS011;12312;53.362;-1.518;2024-02-23T12:30:02;1.05;;;0.47;;
24153;SDS011;12312;53.362;-1.518;2024-02-23T12:32:47;1.17;;;0.70;;
24153;SDS011;12312;53.362;-1.518;2024-02-23T12:35:31;2.30;;;0.57;;
24153;SDS011;12312;53.362;-1.518;2024-02-23T12:38:15;3.35;;;0.80;;
24153;SDS011;12312;53.362;-1.518;2024-02-23T12:40:59;1.95;;;0.70;;
24153;SDS011;12312;53.362;-1.518;2024-02-23T12:43:44;3.45;;;0.60;;
24153;SDS011;12312;53.362;-1.518;2024-02-23T12:46:28;0.88;;;0.70;;
24153;SDS011;12312;53.362;-1.518;2024-02-23T12:49:12;5.32;;;1.13;;
24153;SDS011;12312;53.362;-1.518;2024-02-23T12:51:56;0.65;;;0.52;;
24153;SDS011;12312;53.362;-1.518;2024-02-23T12:54:40;2.83;;;0.52;;
24153;SDS011;12312;53.362;-1.518;2024-02-23T12:57:25;1.10;;;0.68;;
24153;SDS011;12312;53.362;-1.518;2024-02-23T13:00:09;0.68;;;0.50;;
24153;SDS011;12312;53.362;-1.518;2024-02-23T13:02:54;0.85;;;0.50;;
24153;SDS011;12312;53.362;-1.518;2024-02-23T13:05:38;2.28;;;0.73;;
24153;SDS011;12312;53.362;-1.518;2024-02-23T13:08:23;0.98;;;0.70;;
24153;SDS011;12312;53.362;-1.518;2024-02-23T13:11:08;0.95;;;0.75;;
24153;SDS011;12312;53.362;-1.518;2024-02-23T13:13:53;5.28;;;0.88;;
24153;SDS011;12312;53.362;-1.518;2024-02-23T13:16:37;5.00;;;0.70;;
24153;SDS011;12312;53.362;-1.518;2024-02-23T13:19:21;3.58;;;0.65;;
24153;SDS011;12312;53.362;-1.518;2024-02-23T13:22:05;2.20;;;0.82;;
24153;SDS011;12312;53.362;-1.518;2024-02-23T13:24:49;0.80;;;0.50;;
24153;SDS011;12312;53.362;-1.518;2024-02-23T13:27:33;4.15;;;0.88;;
24153;SDS011;12312;53.362;-1.518;2024-02-23T13:30:17;1.92;;;0.63;;
24153;SDS011;12312;53.362;-1.518;2024-02-23T13:33:01;1.88;;;1.00;;
24153;SDS011;12312;53.362;-1.518;2024-02-23T13:35:46;2.97;;;0.73;;
24153;SDS011;12312;53.362;-1.518;2024-02-23T13:38:30;1.15;;;0.70;;
24153;SDS011;12312;53.362;-1.518;2024-02-23T13:41:13;1.73;;;0.70;;
24153;SDS011;12312;53.362;-1.518;2024-02-23T13:43:57;0.80;;;0.68;;
24153;SDS011;12312;53.362;-1.518;2024-02-23T13:46:41;3.20;;;0.63;;
24153;SDS011;12312;53.362;-1.518;2024-02-23T13:49:25;0.98;;;0.63;;
24153;SDS011;12312;53.362;-1.518;2024-02-23T13:52:09;2.13;;;0.85;;
24153;SDS011;12312;53.362;-1.518;2024-02-23T13:54:53;6.40;;;0.85;;
24153;SDS011;12312;53.362;-1.518;2024-02-23T13:57:37;2.22;;;0.90;;
24153;SDS011;12312;53.362;-1.518;2024-02-23T14:00:21;3.13;;;0.82;;
24153;SDS011;12312;53.362;-1.518;2024-02-23T14:03:05;3.25;;;1.50;;
24153;SDS011;12312;53.362;-1.518;2024-02-23T14:05:49;2.15;;;1.02;;
24153;SDS011;12312;53.362;-1.518;2024-02-23T14:08:34;0.43;;;0.40;;
24153;SDS011;12312;53.362;-1.518;2024-02-23T14:11:18;6.23;;;1.07;;
24153;SDS011;12312;53.362;-1.518;2024-02-23T14:14:03;1.27;;;0.90;;
24153;SDS011;12312;53.362;-1.518;2024-02-23T14:16:48;3.20;;;0.80;;
24153;SDS011;12312;53.362;-1.518;2024-02-23T14:19:32;2.80;;;0.70;;
24153;SDS011;12312;53.362;-1.518;2024-02-23T14:22:16;2.78;;;0.98;;
24153;SDS011;12312;53.362;-1.518;2024-02-23T14:25:01;0.73;;;0.60;;
24153;SDS011;12312;53.362;-1.518;2024-02-23T14:27:45;4.57;;;0.77;;
24153;SDS011;12312;53.362;-1.518;2024-02-23T14:30:29;1.75;;;0.77;;
24153;SDS011;12312;53.362;-1.518;2024-02-23T14:33:13;4.57;;;0.93;;
24153;SDS011;12312;53.362;-1.518;2024-02-23T14:35:58;1.42;;;0.70;;
24153;SDS011;12312;53.362;-1.518;2024-02-23T14:38:42;5.68;;;0.68;;
24153;SDS011;12312;53.362;-1.518;2024-02-23T14:41:26;5.25;;;1.08;;
24153;SDS011;12312;53.362;-1.518;2024-02-23T14:44:11;0.93;;;0.80;;
24153;SDS011;12312;53.362;-1.518;2024-02-23T14:46:55;1.88;;;0.80;;
24153;SDS011;12312;53.362;-1.518;2024-02-23T14:49:39;3.17;;;1.02;;
24153;SDS011;12312;53.362;-1.518;2024-02-23T14:52:23;5.88;;;2.30;;
24153;SDS011;12312;53.362;-1.518;2024-02-23T14:55:07;4.32;;;1.00;;
24153;SDS011;12312;53.362;-1.518;2024-02-23T14:57:54;4.38;;;1.55;;
24153;SDS011;12312;53.362;-1.518;2024-02-23T15:00:39;2.75;;;1.20;;
24153;SDS011;12312;53.362;-1.518;2024-02-23T15:03:24;3.25;;;0.77;;
24153;SDS011;12312;53.362;-1.518;2024-02-23T15:06:09;2.65;;;1.15;;
24153;SDS011;12312;53.362;-1.518;2024-02-23T15:08:54;3.80;;;1.10;;
24153;SDS011;12312;53.362;-1.518;2024-02-23T15:11:38;2.67;;;0.77;;
24153;SDS011;12312;53.362;-1.518;2024-02-23T15:14:22;7.68;;;0.88;;
24153;SDS011;12312;53.362;-1.518;2024-02-23T15:17:06;4.25;;;1.15;;
24153;SDS011;12312;53.362;-1.518;2024-02-23T15:19:50;2.10;;;0.77;;
24153;SDS011;12312;53.362;-1.518;2024-02-23T15:22:34;2.38;;;0.82;;
24153;SDS011;12312;53.362;-1.518;2024-02-23T15:25:19;2.65;;;0.77;;
24153;SDS011;12312;53.362;-1.518;2024-02-23T15:28:03;10.18;;;1.17;;
24153;SDS011;12312;53.362;-1.518;2024-02-23T15:30:47;4.88;;;0.98;;
24153;SDS011;12312;53.362;-1.518;2024-02-23T15:33:32;0.85;;;0.70;;
24153;SDS011;12312;53.362;-1.518;2024-02-23T15:36:16;0.85;;;0.60;;
24153;SDS011;12312;53.362;-1.518;2024-02-23T15:39:00;0.50;;;0.50;;
24153;SDS011;12312;53.362;-1.518;2024-02-23T15:41:46;3.47;;;0.85;;
24153;SDS011;12312;53.362;-1.518;2024-02-23T15:44:30;3.80;;;1.38;;
24153;SDS011;12312;53.362;-1.518;2024-02-23T15:47:14;4.75;;;1.00;;
24153;SDS011;12312;53.362;-1.518;2024-02-23T15:49:58;1.85;;;1.13;;
24153;SDS011;12312;53.362;-1.518;2024-02-23T15:52:44;2.60;;;0.65;;
24153;SDS011;12312;53.362;-1.518;2024-02-23T15:55:28;1.98;;;0.73;;
24153;SDS011;12312;53.362;-1.518;2024-02-23T15:58:12;1.33;;;0.77;;
24153;SDS011;12312;53.362;-1.518;2024-02-23T16:00:59;1.63;;;0.50;;
24153;SDS011;12312;53.362;-1.518;2024-02-23T16:03:43;4.18;;;1.17;;
24153;SDS011;12312;53.362;-1.518;2024-02-23T16:06:27;5.63;;;1.10;;
24153;SDS011;12312;53.362;-1.518;2024-02-23T16:09:14;3.35;;;1.00;;
24153;SDS011;12312;53.362;-1.518;2024-02-23T16:11:59;2.10;;;0.80;;
24153;SDS011;12312;53.362;-1.518;2024-02-23T16:14:43;2.22;;;0.68;;
24153;SDS011;12312;53.362;-1.518;2024-02-23T16:17:27;2.60;;;0.80;;
24153;SDS011;12312;53.362;-1.518;2024-02-23T16:20:11;3.00;;;1.27;;